Aeroporto :
LOGIN :

Iscrizione | Disclaimer

   EN    FR    IT 

 










Sommario :    VFR   VFR Marginale   IFR   IFR Intensivo   IFR Molto Intensivo
Visibilità : 
Base nubi : 
>= 8 km
>= 3000ft
5 / 8 km
1000 / 3000 ft
1500m / 5 km
500 / 1000 ft
800 / 1500m
200 / 500 ft
< 800m
< 200 ft
Simboli :   Temporali  Nebbia  Neve Forte  Precipitazioni Forti  Vento > 20 kt
SIGMETs :   Varie  Temporali  Ghiacco  Turbolenza  Onda orograficha  Ceneri Vulcaniche







- Altitudine del aeroporto : 13 ft
- Codice IATA : LYX
- Carte del aeroporto


EGMD - Lydd

ULTIMO METAR :
  • 210550Z AUTO 33006KT 5000 BR NCD 08/07 Q1022

METARs OBSOLETI :
  • 210520Z AUTO 33007KT 5000 BR NCD 07/06 Q1022
  • 210450Z AUTO 33007KT 4500 BR NCD 07/06 Q1022
  • 210420Z AUTO 33006KT 5000 HZ NCD 07/06 Q1023
  • 210350Z AUTO 33008KT 5000 HZ NCD 07/06 Q1023
  • 210320Z AUTO 33006KT 6000 NCD 07/06 Q1023

TAF TAF EGMD
Valido dal 21 a 06 ore il 21 a 15 ore UTC


210504Z 2106/2115 34005KT 7000 NSC
TEMPO 2106/2107 4000 HZ
BECMG 2107/2110 07010KT CAVOK
ATIS : +44 1797 322 422
Nessun NOTAM noto per questo aeroporto.



MetMap, La meteo Aeronautica in un colpo d'occhio ! - Copyright ORBIFLY Dicembre 2007 - Disclaimer

ORBIFLY MET'MAP TEAM :

Programmazione e sviluppo : Alexandra Zaïnal
Concezione e sviluppo : Baudouin d'Aumeries
Co-Programmazione e sviluppo : Marc-Olivier Méhu
Supporto tecnico e logistico : Manuel Goepfert
Aiuto per la traduzione : Arnaldo La Scala

Contatto : metmap@orbifly.com




FONTI E CREDITI :

   NOAA